Time;durP1;ratioP1;P1;durP2;ratioP2;P2;SDS_P1;SDS_P2;PMS_P1;PMS_P2;Temp;Humidity;BMP_temperature;BMP_pressure;BME280_temperature;BME280_humidity;BME280_pressure;Samples;Min_cycle;Max_cycle;Signal;HPM_P1;HPM_P2
2022/03/06 00:01:20;;;;;;;0.10;0.10;;;;;;;;;;5042628;28;20616;-70
2022/03/06 00:03:47;;;;;;;0.20;0.20;;;;;;;;;;5042905;28;20642;-69
2022/03/06 00:06:14;;;;;;;0.20;0.20;;;;;;;;;;5022505;28;20689;-71
2022/03/06 00:08:42;;;;;;;0.20;0.20;;;;;;;;;;5043146;28;20649;-70
2022/03/06 00:11:10;;;;;;;0.20;0.20;;;;;;;;;;5044714;28;20637;-72
2022/03/06 00:13:38;;;;;;;0.10;0.10;;;;;;;;;;5026077;28;20633;-70
2022/03/06 00:16:06;;;;;;;0.20;0.20;;;;;;;;;;5023326;28;20707;-71
2022/03/06 00:18:35;;;;;;;0.10;0.10;;;;;;;;;;5033073;28;20637;-71
2022/03/06 00:21:03;;;;;;;0.20;0.20;;;;;;;;;;5023264;28;20645;-70
2022/03/06 00:23:30;;;;;;;0.20;0.20;;;;;;;;;;5021661;28;20638;-71
2022/03/06 00:25:58;;;;;;;0.20;0.20;;;;;;;;;;5044588;28;20669;-72
2022/03/06 00:28:26;;;;;;;0.20;0.20;;;;;;;;;;5045261;28;20654;-71
2022/03/06 00:30:54;;;;;;;0.20;0.20;;;;;;;;;;5042421;28;20617;-69
2022/03/06 00:33:22;;;;;;;0.20;0.20;;;;;;;;;;5041539;28;20634;-69
2022/03/06 00:35:49;;;;;;;0.20;0.20;;;;;;;;;;5041964;28;20720;-70
2022/03/06 00:38:17;;;;;;;0.20;0.20;;;;;;;;;;5043002;28;20618;-70
2022/03/06 00:40:45;;;;;;;0.10;0.10;;;;;;;;;;5043022;28;20708;-69
2022/03/06 00:43:12;;;;;;;0.20;0.20;;;;;;;;;;5042658;28;20706;-71
2022/03/06 00:45:40;;;;;;;0.10;0.10;;;;;;;;;;5041507;28;20644;-71
2022/03/06 00:48:09;;;;;;;0.20;0.20;;;;;;;;;;5024206;28;20669;-69
2022/03/06 00:50:36;;;;;;;0.10;0.10;;;;;;;;;;5041263;28;20594;-70
2022/03/06 00:53:05;;;;;;;0.20;0.20;;;;;;;;;;5035133;28;21253;-71
2022/03/06 00:55:32;;;;;;;0.17;0.17;;;;;;;;;;5042346;28;20592;-69
2022/03/06 00:58:05;;;;;;;0.20;0.20;;;;;;;;;;5024976;28;20634;-70
2022/03/06 01:00:35;;;;;;;0.20;0.20;;;;;;;;;;5042342;28;20606;-71
2022/03/06 01:03:03;;;;;;;0.20;0.20;;;;;;;;;;5025909;28;20630;-69
2022/03/06 01:05:32;;;;;;;0.10;0.10;;;;;;;;;;5042174;28;20618;-72
2022/03/06 01:07:59;;;;;;;0.10;0.10;;;;;;;;;;5023495;28;21234;-70
2022/03/06 01:10:27;;;;;;;0.20;0.20;;;;;;;;;;5028238;28;20641;-72
2022/03/06 01:12:54;;;;;;;0.20;0.20;;;;;;;;;;5027709;28;20693;-70
2022/03/06 01:15:22;;;;;;;0.20;0.20;;;;;;;;;;5029688;28;20649;-69
2022/03/06 01:17:50;;;;;;;0.20;0.20;;;;;;;;;;5024945;28;20646;-71
2022/03/06 01:20:19;;;;;;;0.20;0.20;;;;;;;;;;5046053;28;20629;-72
2022/03/06 01:22:48;;;;;;;0.10;0.10;;;;;;;;;;5045423;28;20628;-70
2022/03/06 01:25:15;;;;;;;0.20;0.20;;;;;;;;;;5045803;28;20614;-72
2022/03/06 01:27:42;;;;;;;0.20;0.20;;;;;;;;;;5045062;28;20672;-71
2022/03/06 01:30:11;;;;;;;0.20;0.20;;;;;;;;;;5027472;28;20618;-71
2022/03/06 01:32:38;;;;;;;0.20;0.20;;;;;;;;;;5044570;28;20657;-70
2022/03/06 01:35:06;;;;;;;0.17;0.17;;;;;;;;;;5024496;28;20621;-71
2022/03/06 01:37:34;;;;;;;0.20;0.20;;;;;;;;;;5046519;28;20665;-71
2022/03/06 01:40:03;;;;;;;0.20;0.20;;;;;;;;;;5043466;28;20633;-72
2022/03/06 01:42:30;;;;;;;0.23;0.23;;;;;;;;;;5021548;28;20668;-70
2022/03/06 01:44:57;;;;;;;0.10;0.10;;;;;;;;;;5044407;28;20626;-71
2022/03/06 01:47:32;;;;;;;0.20;0.20;;;;;;;;;;5045205;28;21220;-69
2022/03/06 01:49:59;;;;;;;0.20;0.20;;;;;;;;;;5045818;28;20648;-70
2022/03/06 01:52:26;;;;;;;0.20;0.20;;;;;;;;;;5027307;28;20667;-70
2022/03/06 01:54:54;;;;;;;0.20;0.20;;;;;;;;;;5042449;28;20698;-71
2022/03/06 01:57:23;;;;;;;0.20;0.20;;;;;;;;;;5027992;28;20670;-71
2022/03/06 01:59:51;;;;;;;0.20;0.20;;;;;;;;;;5018778;28;20629;-71
2022/03/06 02:02:18;;;;;;;0.20;0.20;;;;;;;;;;5044532;28;20630;-70
2022/03/06 02:04:46;;;;;;;0.30;0.30;;;;;;;;;;5026017;28;20634;-71
2022/03/06 02:07:13;;;;;;;0.20;0.20;;;;;;;;;;5044674;28;20688;-69
2022/03/06 02:09:40;;;;;;;0.30;0.30;;;;;;;;;;5029086;28;20644;-72
2022/03/06 02:12:23;;;;;;;0.20;0.20;;;;;;;;;;5045884;28;20609;-70
2022/03/06 02:14:53;;;;;;;0.10;0.10;;;;;;;;;;5028754;28;20686;-70
2022/03/06 02:17:20;;;;;;;0.20;0.20;;;;;;;;;;5046937;28;20646;-72
2022/03/06 02:19:55;;;;;;;0.10;0.10;;;;;;;;;;5046095;28;20620;-70
2022/03/06 02:22:24;;;;;;;0.20;0.20;;;;;;;;;;5046107;28;21122;-72
2022/03/06 02:24:52;;;;;;;0.20;0.20;;;;;;;;;;5045947;28;20586;-71
2022/03/06 02:27:20;;;;;;;0.20;0.20;;;;;;;;;;5043429;28;20673;-69
2022/03/06 02:29:47;;;;;;;0.10;0.10;;;;;;;;;;5028092;28;20630;-72
2022/03/06 02:32:16;;;;;;;0.20;0.20;;;;;;;;;;5045004;28;20610;-71
2022/03/06 02:34:44;;;;;;;0.10;0.10;;;;;;;;;;5046061;28;20613;-72
2022/03/06 02:37:12;;;;;;;0.20;0.20;;;;;;;;;;5025940;28;20748;-70
2022/03/06 02:39:43;;;;;;;0.20;0.20;;;;;;;;;;5044148;28;20679;-71
2022/03/06 02:42:12;;;;;;;0.20;0.20;;;;;;;;;;5044382;28;20231;-71
2022/03/06 02:44:39;;;;;;;0.20;0.20;;;;;;;;;;5044117;28;20612;-72
2022/03/06 02:47:08;;;;;;;0.20;0.20;;;;;;;;;;5043855;28;20222;-70
2022/03/06 02:49:35;;;;;;;0.20;0.20;;;;;;;;;;5031342;28;21308;-72
2022/03/06 02:52:08;;;;;;;0.20;0.20;;;;;;;;;;5045387;28;20622;-71
2022/03/06 02:54:36;;;;;;;0.20;0.20;;;;;;;;;;5026484;28;20622;-70
2022/03/06 02:57:05;;;;;;;0.23;0.23;;;;;;;;;;5043722;28;20645;-71
2022/03/06 02:59:32;;;;;;;0.20;0.20;;;;;;;;;;5026388;28;20672;-71
2022/03/06 03:02:00;;;;;;;0.20;0.20;;;;;;;;;;5042550;28;20688;-71
2022/03/06 03:04:27;;;;;;;0.20;0.20;;;;;;;;;;5042170;28;20260;-69
2022/03/06 03:06:55;;;;;;;0.20;0.20;;;;;;;;;;5026431;28;20219;-71
2022/03/06 03:09:22;;;;;;;0.10;0.10;;;;;;;;;;5023840;28;20731;-71
2022/03/06 03:11:51;;;;;;;0.10;0.10;;;;;;;;;;5044845;28;20199;-72
2022/03/06 03:14:20;;;;;;;0.20;0.20;;;;;;;;;;5026551;28;20207;-69
2022/03/06 03:16:47;;;;;;;0.20;0.20;;;;;;;;;;5042633;28;20239;-71
2022/03/06 03:19:17;;;;;;;0.20;0.20;;;;;;;;;;5042408;28;20644;-71
2022/03/06 03:21:44;;;;;;;0.20;0.20;;;;;;;;;;5025711;28;21240;-71
2022/03/06 03:24:12;;;;;;;0.20;0.20;;;;;;;;;;5045162;28;20594;-72
2022/03/06 03:26:39;;;;;;;0.20;0.20;;;;;;;;;;5026310;28;20657;-70
2022/03/06 03:29:07;;;;;;;0.20;0.20;;;;;;;;;;5028586;28;20658;-70
2022/03/06 03:31:35;;;;;;;0.10;0.10;;;;;;;;;;5026295;28;20204;-72
2022/03/06 03:34:03;;;;;;;0.20;0.20;;;;;;;;;;5044508;28;20206;-71
2022/03/06 03:36:30;;;;;;;0.10;0.10;;;;;;;;;;5041857;28;20228;-70
2022/03/06 03:38:58;;;;;;;0.20;0.20;;;;;;;;;;5024285;28;20195;-70
2022/03/06 03:41:25;;;;;;;0.13;0.13;;;;;;;;;;5044116;28;20621;-71
2022/03/06 03:43:53;;;;;;;0.10;0.10;;;;;;;;;;5025957;28;20211;-72
2022/03/06 03:46:21;;;;;;;0.20;0.20;;;;;;;;;;5018206;28;20681;-70
2022/03/06 03:48:50;;;;;;;0.20;0.20;;;;;;;;;;5026171;28;20223;-69
2022/03/06 03:51:17;;;;;;;0.20;0.20;;;;;;;;;;5044169;28;20606;-72
2022/03/06 03:53:44;;;;;;;0.20;0.20;;;;;;;;;;5043304;28;20298;-69
2022/03/06 03:56:11;;;;;;;0.10;0.10;;;;;;;;;;5041500;28;20688;-72
2022/03/06 03:58:39;;;;;;;0.20;0.20;;;;;;;;;;5025449;28;20192;-70
2022/03/06 04:01:06;;;;;;;0.20;0.20;;;;;;;;;;5042536;28;20610;-71
2022/03/06 04:03:34;;;;;;;0.20;0.20;;;;;;;;;;5024436;28;20638;-71
2022/03/06 04:06:02;;;;;;;0.20;0.20;;;;;;;;;;5025230;28;20678;-71
2022/03/06 04:08:30;;;;;;;0.20;0.20;;;;;;;;;;5043289;28;20579;-72
2022/03/06 04:10:59;;;;;;;0.20;0.20;;;;;;;;;;5044116;28;20578;-72
2022/03/06 04:13:26;;;;;;;0.20;0.20;;;;;;;;;;5023047;28;20625;-72
2022/03/06 04:15:54;;;;;;;0.20;0.20;;;;;;;;;;5043344;28;20649;-70
2022/03/06 04:18:21;;;;;;;0.20;0.20;;;;;;;;;;5026630;28;20749;-71
2022/03/06 04:20:48;;;;;;;0.20;0.20;;;;;;;;;;5043023;28;20660;-71
2022/03/06 04:23:17;;;;;;;0.20;0.20;;;;;;;;;;5017906;28;21252;-71
2022/03/06 04:25:44;;;;;;;0.20;0.20;;;;;;;;;;5043738;28;20640;-70
2022/03/06 04:28:12;;;;;;;0.20;0.20;;;;;;;;;;5025609;28;20253;-72
2022/03/06 04:30:40;;;;;;;0.20;0.20;;;;;;;;;;5025745;28;20736;-70
2022/03/06 04:33:07;;;;;;;0.20;0.20;;;;;;;;;;5041510;28;20624;-72
2022/03/06 04:35:35;;;;;;;0.20;0.20;;;;;;;;;;5025736;28;21212;-69
2022/03/06 04:38:02;;;;;;;0.20;0.20;;;;;;;;;;5025266;28;20203;-69
2022/03/06 04:40:31;;;;;;;0.20;0.20;;;;;;;;;;5025498;28;21216;-72
2022/03/06 04:42:58;;;;;;;0.10;0.10;;;;;;;;;;5042821;28;20634;-71
2022/03/06 04:45:26;;;;;;;0.20;0.20;;;;;;;;;;5045896;28;20610;-70
2022/03/06 04:47:54;;;;;;;0.20;0.20;;;;;;;;;;5046719;28;20720;-71
2022/03/06 04:50:21;;;;;;;0.20;0.20;;;;;;;;;;5028054;28;20657;-71
2022/03/06 04:52:49;;;;;;;0.20;0.20;;;;;;;;;;5047283;28;20191;-71
2022/03/06 04:55:16;;;;;;;0.17;0.17;;;;;;;;;;5046482;28;20686;-71
2022/03/06 04:57:46;;;;;;;0.20;0.20;;;;;;;;;;5044480;28;20230;-71
2022/03/06 05:00:15;;;;;;;0.20;0.20;;;;;;;;;;5045585;28;20203;-71
2022/03/06 05:02:42;;;;;;;0.20;0.20;;;;;;;;;;5029481;28;20199;-71
2022/03/06 05:05:10;;;;;;;0.20;0.20;;;;;;;;;;5047366;28;20245;-71
2022/03/06 05:07:37;;;;;;;0.20;0.20;;;;;;;;;;5040525;28;20227;-72
2022/03/06 05:10:09;;;;;;;0.20;0.20;;;;;;;;;;5040882;28;20265;-70
2022/03/06 05:12:36;;;;;;;0.20;0.20;;;;;;;;;;5046481;28;20190;-71
2022/03/06 05:15:06;;;;;;;0.20;0.20;;;;;;;;;;5027956;28;20664;-72
2022/03/06 05:17:34;;;;;;;0.20;0.20;;;;;;;;;;5027336;28;20215;-72
2022/03/06 05:20:01;;;;;;;0.20;0.20;;;;;;;;;;5035122;28;20738;-72
2022/03/06 05:22:28;;;;;;;0.20;0.20;;;;;;;;;;5046521;28;20202;-72
2022/03/06 05:24:57;;;;;;;0.20;0.20;;;;;;;;;;5027774;28;20203;-71
2022/03/06 05:27:24;;;;;;;0.25;0.25;;;;;;;;;;5028186;28;20285;-72
2022/03/06 05:29:52;;;;;;;0.20;0.20;;;;;;;;;;5043797;28;20322;-69
2022/03/06 05:32:20;;;;;;;0.20;0.20;;;;;;;;;;5044052;28;20261;-71
2022/03/06 05:34:48;;;;;;;0.20;0.20;;;;;;;;;;5046241;28;20625;-70
2022/03/06 05:37:15;;;;;;;0.20;0.20;;;;;;;;;;5021270;28;20245;-70
2022/03/06 05:39:42;;;;;;;0.20;0.20;;;;;;;;;;5025783;28;20661;-71
2022/03/06 05:42:10;;;;;;;0.20;0.20;;;;;;;;;;5045356;28;20225;-69
2022/03/06 05:44:37;;;;;;;0.20;0.20;;;;;;;;;;5028156;28;20203;-71
2022/03/06 05:47:05;;;;;;;0.20;0.20;;;;;;;;;;5027470;28;20325;-70
2022/03/06 05:49:34;;;;;;;0.20;0.20;;;;;;;;;;5028448;28;20215;-71
2022/03/06 05:52:02;;;;;;;0.20;0.20;;;;;;;;;;5028226;28;20207;-71
2022/03/06 05:54:29;;;;;;;0.20;0.20;;;;;;;;;;5028254;28;21198;-71
2022/03/06 05:56:57;;;;;;;0.20;0.20;;;;;;;;;;5027659;28;20679;-71
2022/03/06 05:59:25;;;;;;;0.20;0.20;;;;;;;;;;5028211;28;20675;-69
2022/03/06 06:01:52;;;;;;;0.20;0.20;;;;;;;;;;5046996;28;20203;-72
2022/03/06 06:04:20;;;;;;;0.20;0.20;;;;;;;;;;5041614;28;20649;-70
2022/03/06 06:06:48;;;;;;;0.20;0.20;;;;;;;;;;5028437;28;20310;-71
2022/03/06 06:09:15;;;;;;;0.20;0.20;;;;;;;;;;5046034;28;20756;-72
2022/03/06 06:11:43;;;;;;;0.20;0.20;;;;;;;;;;5041802;28;20202;-72
2022/03/06 06:14:11;;;;;;;0.20;0.20;;;;;;;;;;5045346;28;20199;-72
2022/03/06 06:16:38;;;;;;;0.20;0.20;;;;;;;;;;5028902;28;20334;-71
2022/03/06 06:19:06;;;;;;;0.20;0.20;;;;;;;;;;5045610;28;20198;-71
2022/03/06 06:21:33;;;;;;;0.20;0.20;;;;;;;;;;5049757;28;20203;-71
2022/03/06 06:24:01;;;;;;;0.20;0.20;;;;;;;;;;5043316;28;20563;-72
2022/03/06 06:26:29;;;;;;;0.20;0.20;;;;;;;;;;5046937;28;20317;-71
2022/03/06 06:28:56;;;;;;;0.20;0.20;;;;;;;;;;5028379;28;20238;-71
2022/03/06 06:31:24;;;;;;;0.20;0.20;;;;;;;;;;5028022;28;20195;-72
2022/03/06 06:33:52;;;;;;;0.20;0.20;;;;;;;;;;5027654;28;20783;-70
2022/03/06 06:36:20;;;;;;;0.20;0.20;;;;;;;;;;5045120;28;20653;-70
2022/03/06 06:38:48;;;;;;;0.10;0.10;;;;;;;;;;5027634;28;20716;-69
2022/03/06 06:41:16;;;;;;;0.20;0.20;;;;;;;;;;5026712;28;20195;-72
2022/03/06 06:43:44;;;;;;;0.20;0.20;;;;;;;;;;5025190;28;20203;-71
2022/03/06 06:46:11;;;;;;;0.10;0.10;;;;;;;;;;5027367;28;20319;-70
2022/03/06 06:48:39;;;;;;;0.20;0.20;;;;;;;;;;5045394;28;20668;-71
2022/03/06 06:51:06;;;;;;;0.10;0.10;;;;;;;;;;5035004;28;20246;-72
2022/03/06 06:53:34;;;;;;;0.20;0.20;;;;;;;;;;5042509;28;21194;-70
2022/03/06 06:56:01;;;;;;;0.20;0.20;;;;;;;;;;5045768;28;20648;-71
2022/03/06 06:58:30;;;;;;;0.20;0.20;;;;;;;;;;5044116;28;20199;-70
2022/03/06 07:00:57;;;;;;;0.10;0.10;;;;;;;;;;5027897;28;20657;-71
2022/03/06 07:03:25;;;;;;;0.10;0.10;;;;;;;;;;5027864;28;20738;-71
2022/03/06 07:05:52;;;;;;;0.20;0.20;;;;;;;;;;5023620;28;20225;-71
2022/03/06 07:08:19;;;;;;;0.10;0.10;;;;;;;;;;5043542;28;20659;-71
2022/03/06 07:10:47;;;;;;;0.20;0.20;;;;;;;;;;5044198;28;20650;-71
2022/03/06 07:13:14;;;;;;;0.20;0.20;;;;;;;;;;5023446;28;20249;-71
2022/03/06 07:15:43;;;;;;;0.20;0.20;;;;;;;;;;5025563;28;20218;-69
2022/03/06 07:18:10;;;;;;;0.20;0.20;;;;;;;;;;5045041;28;20673;-70
2022/03/06 07:20:38;;;;;;;0.20;0.20;;;;;;;;;;5027320;28;20676;-71
2022/03/06 07:23:05;;;;;;;0.20;0.20;;;;;;;;;;5044052;28;20617;-72
2022/03/06 07:25:32;;;;;;;0.20;0.20;;;;;;;;;;5040171;28;20634;-71
2022/03/06 07:28:00;;;;;;;0.20;0.20;;;;;;;;;;5025605;28;20650;-71
2022/03/06 07:30:27;;;;;;;0.20;0.20;;;;;;;;;;5044890;28;20223;-71
2022/03/06 07:32:56;;;;;;;0.10;0.10;;;;;;;;;;5046389;28;20195;-71
2022/03/06 07:35:24;;;;;;;0.20;0.20;;;;;;;;;;5044114;28;20249;-72
2022/03/06 07:37:51;;;;;;;0.20;0.20;;;;;;;;;;5030586;28;20737;-72
2022/03/06 07:40:19;;;;;;;0.10;0.10;;;;;;;;;;5042252;28;20602;-71
2022/03/06 07:42:46;;;;;;;0.13;0.13;;;;;;;;;;5041661;28;20632;-71
2022/03/06 07:45:14;;;;;;;0.20;0.20;;;;;;;;;;5042511;28;20620;-70
2022/03/06 07:47:41;;;;;;;0.20;0.20;;;;;;;;;;5041023;28;20699;-70
2022/03/06 07:50:11;;;;;;;0.10;0.10;;;;;;;;;;5040034;28;20231;-71
2022/03/06 07:52:39;;;;;;;0.20;0.20;;;;;;;;;;5023579;28;20208;-72
2022/03/06 07:55:07;;;;;;;0.20;0.20;;;;;;;;;;5043006;28;20649;-69
2022/03/06 07:57:35;;;;;;;0.20;0.20;;;;;;;;;;5044328;28;20665;-71
2022/03/06 08:00:02;;;;;;;0.20;0.20;;;;;;;;;;5025507;28;20219;-71
2022/03/06 08:02:36;;;;;;;0.20;0.20;;;;;;;;;;5043773;28;20630;-72
2022/03/06 08:05:05;;;;;;;0.20;0.20;;;;;;;;;;5043175;28;20625;-72
2022/03/06 08:07:34;;;;;;;0.20;0.20;;;;;;;;;;5041524;28;20642;-71
2022/03/06 08:10:04;;;;;;;0.20;0.20;;;;;;;;;;5040668;28;20649;-71
2022/03/06 08:12:31;;;;;;;0.10;0.10;;;;;;;;;;5022671;28;20622;-70
2022/03/06 08:14:58;;;;;;;0.10;0.10;;;;;;;;;;5032344;28;20198;-72
2022/03/06 08:17:26;;;;;;;0.20;0.20;;;;;;;;;;5042863;28;20307;-71
2022/03/06 08:19:53;;;;;;;0.17;0.17;;;;;;;;;;5041144;28;20191;-71
2022/03/06 08:22:22;;;;;;;0.20;0.20;;;;;;;;;;5042809;28;20653;-72
2022/03/06 08:24:51;;;;;;;0.10;0.10;;;;;;;;;;5032681;28;20200;-72
2022/03/06 08:27:18;;;;;;;0.20;0.20;;;;;;;;;;5024175;28;20668;-72
2022/03/06 08:29:46;;;;;;;0.20;0.20;;;;;;;;;;5041359;28;20236;-71
2022/03/06 08:32:13;;;;;;;0.20;0.20;;;;;;;;;;5024240;28;20660;-70
2022/03/06 08:34:41;;;;;;;0.20;0.20;;;;;;;;;;5041003;28;20614;-72
2022/03/06 08:37:08;;;;;;;0.20;0.20;;;;;;;;;;5041340;28;20646;-71
2022/03/06 08:39:35;;;;;;;0.10;0.10;;;;;;;;;;5040256;28;20668;-72
2022/03/06 08:42:04;;;;;;;0.20;0.20;;;;;;;;;;5040559;28;21005;-71
2022/03/06 08:44:32;;;;;;;0.20;0.20;;;;;;;;;;5041231;28;20606;-71
2022/03/06 08:46:59;;;;;;;0.15;0.15;;;;;;;;;;5039835;28;20219;-72
2022/03/06 08:49:27;;;;;;;0.20;0.20;;;;;;;;;;5041671;28;20298;-70
2022/03/06 08:51:56;;;;;;;0.20;0.20;;;;;;;;;;5023802;28;20707;-72
2022/03/06 08:54:23;;;;;;;0.10;0.10;;;;;;;;;;5041263;28;20610;-70
2022/03/06 08:56:50;;;;;;;0.20;0.20;;;;;;;;;;5041760;28;20661;-69
2022/03/06 08:59:20;;;;;;;0.20;0.20;;;;;;;;;;5041132;28;20617;-71
2022/03/06 09:01:48;;;;;;;0.17;0.17;;;;;;;;;;5041607;28;20622;-69
2022/03/06 09:04:15;;;;;;;0.10;0.10;;;;;;;;;;5023215;28;20621;-70
2022/03/06 09:06:42;;;;;;;0.10;0.10;;;;;;;;;;5039713;28;20665;-71
2022/03/06 09:09:10;;;;;;;0.20;0.20;;;;;;;;;;5023628;28;20648;-72
2022/03/06 09:11:37;;;;;;;0.20;0.20;;;;;;;;;;5022601;28;20664;-71
2022/03/06 09:14:05;;;;;;;0.10;0.10;;;;;;;;;;5016527;28;20646;-70
2022/03/06 09:16:35;;;;;;;0.10;0.10;;;;;;;;;;5041318;28;20626;-70
2022/03/06 09:19:02;;;;;;;0.20;0.20;;;;;;;;;;5040793;28;20626;-70
2022/03/06 09:21:30;;;;;;;0.13;0.13;;;;;;;;;;5022397;28;20729;-71
2022/03/06 09:23:57;;;;;;;0.10;0.10;;;;;;;;;;5022632;28;21200;-72
2022/03/06 09:26:24;;;;;;;0.10;0.10;;;;;;;;;;5023042;28;20664;-70
2022/03/06 09:28:52;;;;;;;0.20;0.20;;;;;;;;;;5040483;28;20659;-71
2022/03/06 09:31:19;;;;;;;0.10;0.10;;;;;;;;;;5024888;28;20657;-70
2022/03/06 09:33:48;;;;;;;0.20;0.20;;;;;;;;;;5044393;28;20609;-69
2022/03/06 09:36:15;;;;;;;0.20;0.20;;;;;;;;;;5042019;28;20740;-70
2022/03/06 09:38:43;;;;;;;0.20;0.20;;;;;;;;;;5027798;28;20618;-71
2022/03/06 09:41:14;;;;;;;0.10;0.10;;;;;;;;;;5027483;28;20649;-71
2022/03/06 09:43:42;;;;;;;0.20;0.20;;;;;;;;;;5045568;28;20594;-71
2022/03/06 09:46:09;;;;;;;0.10;0.10;;;;;;;;;;5045038;28;20724;-71
2022/03/06 09:48:37;;;;;;;0.20;0.20;;;;;;;;;;5027703;28;20664;-69
2022/03/06 09:51:06;;;;;;;0.10;0.10;;;;;;;;;;5027983;28;20693;-71
2022/03/06 09:53:34;;;;;;;0.20;0.20;;;;;;;;;;5027801;28;20641;-72
2022/03/06 09:56:01;;;;;;;0.10;0.10;;;;;;;;;;5044145;28;20657;-68
2022/03/06 09:58:29;;;;;;;0.20;0.20;;;;;;;;;;5027487;28;20721;-71
2022/03/06 10:00:57;;;;;;;0.10;0.10;;;;;;;;;;5028768;28;20633;-71
2022/03/06 10:03:25;;;;;;;0.20;0.20;;;;;;;;;;5027505;28;20633;-70
2022/03/06 10:05:53;;;;;;;0.20;0.20;;;;;;;;;;5024654;28;20657;-71
2022/03/06 10:08:23;;;;;;;0.10;0.10;;;;;;;;;;5026358;28;20626;-72
2022/03/06 10:10:51;;;;;;;0.20;0.20;;;;;;;;;;5026809;28;20741;-72
2022/03/06 10:13:19;;;;;;;0.10;0.10;;;;;;;;;;5022930;28;20628;-70
2022/03/06 10:16:00;;;;;;;0.10;0.10;;;;;;;;;;5044034;28;20626;-71
2022/03/06 10:18:30;;;;;;;0.10;0.10;;;;;;;;;;5045057;28;20610;-72
2022/03/06 10:21:01;;;;;;;0.10;0.10;;;;;;;;;;5045578;28;20634;-72
2022/03/06 10:23:30;;;;;;;0.20;0.20;;;;;;;;;;5027274;28;20645;-71
2022/03/06 10:26:02;;;;;;;0.10;0.10;;;;;;;;;;5044665;28;20696;-71
2022/03/06 10:28:29;;;;;;;0.20;0.20;;;;;;;;;;5022011;28;21237;-72
2022/03/06 10:31:04;;;;;;;0.20;0.20;;;;;;;;;;5043974;28;20684;-71
2022/03/06 10:33:31;;;;;;;0.10;0.10;;;;;;;;;;5018944;28;20633;-72
2022/03/06 10:36:02;;;;;;;0.17;0.17;;;;;;;;;;5045384;28;20215;-71
2022/03/06 10:38:32;;;;;;;0.20;0.20;;;;;;;;;;5027470;28;20626;-70
2022/03/06 10:41:00;;;;;;;0.20;0.20;;;;;;;;;;5043915;28;20657;-69
2022/03/06 10:43:28;;;;;;;0.20;0.20;;;;;;;;;;5026364;28;20625;-70
2022/03/06 10:46:06;;;;;;;0.20;0.20;;;;;;;;;;5026542;28;20661;-71
2022/03/06 10:48:34;;;;;;;0.10;0.10;;;;;;;;;;5041523;28;20645;-69
2022/03/06 10:51:01;;;;;;;0.10;0.10;;;;;;;;;;5026144;28;20677;-70
2022/03/06 10:53:30;;;;;;;0.20;0.20;;;;;;;;;;5042758;28;20630;-72
2022/03/06 10:56:06;;;;;;;0.20;0.20;;;;;;;;;;5043538;28;20664;-72
2022/03/06 10:58:34;;;;;;;0.10;0.10;;;;;;;;;;5025873;28;20996;-72
2022/03/06 11:01:03;;;;;;;0.10;0.10;;;;;;;;;;5043516;28;20618;-72
2022/03/06 11:03:32;;;;;;;0.20;0.20;;;;;;;;;;5044219;28;20609;-72
2022/03/06 11:06:00;;;;;;;0.20;0.20;;;;;;;;;;5026486;28;20665;-71
2022/03/06 11:08:29;;;;;;;0.17;0.17;;;;;;;;;;5025185;28;20756;-70
2022/03/06 11:10:58;;;;;;;0.10;0.10;;;;;;;;;;5019772;28;20647;-72
2022/03/06 11:13:26;;;;;;;0.17;0.17;;;;;;;;;;5026755;28;20625;-72
2022/03/06 11:15:53;;;;;;;0.20;0.20;;;;;;;;;;5026809;28;20665;-72
2022/03/06 11:18:21;;;;;;;0.20;0.20;;;;;;;;;;5027529;28;20649;-71
2022/03/06 11:20:48;;;;;;;0.10;0.10;;;;;;;;;;5026417;28;20648;-72
2022/03/06 11:23:20;;;;;;;0.20;0.20;;;;;;;;;;5043443;28;20630;-72
2022/03/06 11:25:52;;;;;;;0.10;0.10;;;;;;;;;;5026111;28;20711;-71
2022/03/06 11:28:28;;;;;;;0.10;0.10;;;;;;;;;;5044182;28;20614;-71
2022/03/06 11:30:59;;;;;;;0.20;0.20;;;;;;;;;;5045612;28;20648;-71
2022/03/06 11:33:27;;;;;;;0.10;0.10;;;;;;;;;;5026231;28;20638;-69
2022/03/06 11:35:55;;;;;;;0.10;0.10;;;;;;;;;;5043220;28;20651;-68
2022/03/06 11:38:39;;;;;;;0.20;0.20;;;;;;;;;;5025367;28;20644;-70
2022/03/06 11:41:10;;;;;;;0.20;0.20;;;;;;;;;;5020283;28;20638;-69
2022/03/06 11:43:44;;;;;;;0.20;0.20;;;;;;;;;;5041013;28;20655;-68
2022/03/06 11:46:16;;;;;;;0.10;0.10;;;;;;;;;;5041343;28;20666;-71
2022/03/06 11:49:10;;;;;;;0.10;0.10;;;;;;;;;;5041893;28;20633;-69
2022/03/06 11:51:45;;;;;;;0.10;0.10;;;;;;;;;;5023053;28;20656;-71
2022/03/06 11:54:15;;;;;;;0.10;0.10;;;;;;;;;;5019336;28;20628;-69
2022/03/06 11:56:50;;;;;;;0.20;0.20;;;;;;;;;;5024705;28;20661;-69
2022/03/06 11:59:30;;;;;;;0.10;0.10;;;;;;;;;;5022700;28;20633;-69
2022/03/06 12:02:01;;;;;;;0.13;0.13;;;;;;;;;;5031953;23;20697;-62
2022/03/06 12:04:30;;;;;;;0.10;0.10;;;;;;;;;;5003303;28;20618;-63
2022/03/06 12:06:59;;;;;;;0.10;0.10;;;;;;;;;;5002561;28;20625;-69
2022/03/06 12:09:27;;;;;;;0.20;0.20;;;;;;;;;;5010973;28;20717;-64
2022/03/06 12:11:57;;;;;;;0.20;0.20;;;;;;;;;;5019141;28;20716;-63
2022/03/06 12:14:30;;;;;;;0.20;0.20;;;;;;;;;;5012907;28;20625;-68
2022/03/06 12:17:17;;;;;;;0.17;0.17;;;;;;;;;;5006546;28;20625;-68
2022/03/06 12:20:05;;;;;;;0.20;0.20;;;;;;;;;;5035684;28;20631;-67
2022/03/06 12:22:37;;;;;;;0.20;0.20;;;;;;;;;;5023445;28;20622;-66
2022/03/06 12:25:18;;;;;;;0.20;0.20;;;;;;;;;;5015832;28;20619;-66
2022/03/06 12:28:15;;;;;;;0.10;0.10;;;;;;;;;;5032195;28;20625;-68
2022/03/06 12:30:42;;;;;;;0.20;0.20;;;;;;;;;;5016017;28;20734;-64
2022/03/06 12:33:29;;;;;;;0.10;0.10;;;;;;;;;;5018169;28;20649;-64
2022/03/06 12:36:14;;;;;;;0.20;0.20;;;;;;;;;;5017631;28;20627;-64
2022/03/06 12:38:43;;;;;;;0.20;0.20;;;;;;;;;;5031054;28;20644;-67
2022/03/06 12:41:11;;;;;;;0.20;0.20;;;;;;;;;;5034384;28;20620;-68
2022/03/06 12:43:45;;;;;;;0.10;0.10;;;;;;;;;;5017775;28;20613;-63
2022/03/06 12:46:13;;;;;;;0.20;0.20;;;;;;;;;;5018524;28;20739;-66
2022/03/06 12:48:42;;;;;;;0.20;0.20;;;;;;;;;;5037119;28;20638;-67
2022/03/06 12:51:11;;;;;;;0.10;0.10;;;;;;;;;;5021601;28;20669;-62
2022/03/06 12:53:45;;;;;;;0.20;0.20;;;;;;;;;;5021156;28;20622;-68
2022/03/06 12:56:13;;;;;;;0.20;0.20;;;;;;;;;;5037528;28;20686;-68
2022/03/06 12:58:42;;;;;;;0.20;0.20;;;;;;;;;;5018141;28;20666;-63
2022/03/06 13:07:45;;;;;;;0.20;0.20;;;;;;;;;;5021629;28;20660;-66
2022/03/06 13:10:14;;;;;;;0.10;0.10;;;;;;;;;;5040993;28;20610;-66
2022/03/06 13:12:43;;;;;;;0.20;0.20;;;;;;;;;;5020210;28;20780;-63
2022/03/06 13:15:18;;;;;;;0.20;0.20;;;;;;;;;;5015004;28;20626;-68
2022/03/06 13:17:48;;;;;;;0.20;0.20;;;;;;;;;;5053768;22;20758;-68
2022/03/06 13:20:17;;;;;;;0.20;0.20;;;;;;;;;;5037964;28;20623;-66
2022/03/06 13:22:52;;;;;;;0.20;0.20;;;;;;;;;;5037755;28;20671;-67
2022/03/06 13:28:35;;;;;;;0.10;0.10;;;;;;;;;;5032030;28;20657;-67
2022/03/06 13:38:13;;;;;;;0.20;0.20;;;;;;;;;;5042487;28;20665;-68
2022/03/06 13:41:11;;;;;;;0.20;0.20;;;;;;;;;;5012616;28;20622;-63
2022/03/06 13:43:49;;;;;;;0.20;0.20;;;;;;;;;;5009173;28;20679;-66
2022/03/06 13:46:17;;;;;;;0.20;0.20;;;;;;;;;;5038508;28;20606;-67
2022/03/06 13:48:44;;;;;;;0.20;0.20;;;;;;;;;;5023984;28;21009;-66
2022/03/06 13:51:18;;;;;;;0.10;0.10;;;;;;;;;;5021245;28;20625;-65
2022/03/06 13:53:56;;;;;;;0.10;0.10;;;;;;;;;;5039929;28;20606;-63
2022/03/06 13:56:31;;;;;;;0.10;0.10;;;;;;;;;;5038874;28;21005;-67
2022/03/06 13:58:58;;;;;;;0.10;0.10;;;;;;;;;;5024427;28;20650;-64
2022/03/06 14:01:27;;;;;;;0.20;0.20;;;;;;;;;;5008460;28;20613;-67
2022/03/06 14:04:02;;;;;;;0.17;0.17;;;;;;;;;;5038041;28;20630;-64
2022/03/06 14:06:38;;;;;;;0.10;0.10;;;;;;;;;;5040282;28;20625;-69
2022/03/06 14:09:18;;;;;;;0.10;0.10;;;;;;;;;;5041807;28;20694;-67
2022/03/06 14:11:47;;;;;;;0.10;0.10;;;;;;;;;;5029813;28;20668;-64
2022/03/06 14:14:14;;;;;;;0.20;0.20;;;;;;;;;;5037738;28;20614;-66
2022/03/06 14:16:42;;;;;;;0.10;0.10;;;;;;;;;;5040807;28;20663;-65
2022/03/06 14:19:16;;;;;;;0.10;0.10;;;;;;;;;;5035737;28;20675;-64
2022/03/06 14:21:44;;;;;;;0.10;0.10;;;;;;;;;;5038851;28;20627;-68
2022/03/06 14:24:12;;;;;;;0.10;0.10;;;;;;;;;;5039681;28;20724;-66
2022/03/06 14:26:41;;;;;;;0.10;0.10;;;;;;;;;;5038570;28;20644;-66
2022/03/06 14:29:12;;;;;;;0.10;0.10;;;;;;;;;;5017059;28;20669;-66
2022/03/06 14:35:18;;;;;;;0.20;0.20;;;;;;;;;;5028508;28;20657;-67
2022/03/06 14:37:52;;;;;;;0.10;0.10;;;;;;;;;;4913385;23;21338;-76
2022/03/06 14:40:27;;;;;;;0.10;0.10;;;;;;;;;;4904756;28;20635;-73
2022/03/06 14:43:05;;;;;;;0.20;0.20;;;;;;;;;;4880878;28;20799;-73
2022/03/06 14:45:39;;;;;;;0.10;0.10;;;;;;;;;;4849715;28;21010;-73
2022/03/06 14:48:08;;;;;;;0.10;0.10;;;;;;;;;;4805895;28;20972;-73
2022/03/06 14:50:40;;;;;;;0.20;0.20;;;;;;;;;;4791358;28;20677;-73
2022/03/06 14:53:08;;;;;;;0.10;0.10;;;;;;;;;;4826311;28;21121;-74
2022/03/06 14:55:45;;;;;;;0.10;0.10;;;;;;;;;;4789329;28;21021;-74
2022/03/06 14:58:25;;;;;;;0.10;0.10;;;;;;;;;;4795980;28;20722;-76
2022/03/06 15:00:57;;;;;;;0.20;0.20;;;;;;;;;;4854358;28;21026;-76
2022/03/06 15:03:30;;;;;;;0.17;0.17;;;;;;;;;;4847732;28;21137;-72
2022/03/06 15:06:01;;;;;;;0.20;0.20;;;;;;;;;;4733108;28;20851;-72
2022/03/06 15:08:31;;;;;;;0.10;0.10;;;;;;;;;;4772151;28;20634;-72
2022/03/06 15:11:02;;;;;;;0.20;0.20;;;;;;;;;;4776549;28;21018;-71
2022/03/06 15:13:33;;;;;;;0.10;0.10;;;;;;;;;;4829705;28;20862;-71
2022/03/06 15:16:02;;;;;;;0.10;0.10;;;;;;;;;;4473810;28;21177;-72